createdAt,value
2019-02-11T00:01:32.981Z,100256.27
2019-02-11T00:04:00.222Z,100266.48
2019-02-11T00:06:27.423Z,100273.25
2019-02-11T00:08:54.676Z,100278.36
2019-02-11T00:11:21.882Z,100288.20
2019-02-11T00:13:49.122Z,100299.27
2019-02-11T00:16:16.385Z,100288.92
2019-02-11T00:18:43.617Z,100305.14
2019-02-11T00:21:10.813Z,100303.80
2019-02-11T00:23:38.069Z,100317.25
2019-02-11T00:26:05.276Z,100323.86
2019-02-11T00:28:32.492Z,100335.27
2019-02-11T00:30:59.726Z,100345.53
2019-02-11T00:33:26.987Z,100355.64
2019-02-11T00:35:54.195Z,100354.68
2019-02-11T00:38:21.478Z,100358.25
2019-02-11T00:40:48.723Z,100367.62
2019-02-11T00:43:19.184Z,100365.48
2019-02-11T00:45:45.197Z,100361.63
2019-02-11T00:48:12.427Z,100363.93
2019-02-11T00:50:39.625Z,100378.12
2019-02-11T00:53:07.256Z,100380.49
2019-02-11T00:55:34.575Z,100392.11
2019-02-11T00:58:01.843Z,100392.99
2019-02-11T01:00:29.148Z,100402.34
2019-02-11T01:02:56.373Z,100413.05
2019-02-11T01:05:23.644Z,100415.87
2019-02-11T01:07:50.873Z,100423.95
2019-02-11T01:10:18.080Z,100424.78
2019-02-11T01:12:45.336Z,100434.35
2019-02-11T01:15:12.752Z,100433.00
2019-02-11T01:17:39.992Z,100431.58
2019-02-11T01:20:09.267Z,100444.59
2019-02-11T01:22:36.477Z,100451.45
2019-02-11T01:25:04.300Z,100460.05
2019-02-11T01:27:31.521Z,100455.17
2019-02-11T01:29:58.735Z,100457.37
2019-02-11T01:32:25.971Z,100461.50
2019-02-11T01:34:53.227Z,100474.72
2019-02-11T01:37:20.437Z,100480.29
2019-02-11T01:39:47.691Z,100478.98
2019-02-11T01:42:14.968Z,100488.34
2019-02-11T01:44:42.198Z,100486.19
2019-02-11T01:47:09.447Z,100485.17
2019-02-11T01:49:36.689Z,100493.06
2019-02-11T01:52:03.917Z,100490.99
2019-02-11T01:54:31.109Z,100497.81
2019-02-11T01:56:58.454Z,100494.23
2019-02-11T01:59:25.669Z,100495.88
2019-02-11T02:01:52.891Z,100501.52
2019-02-11T02:04:20.129Z,100507.42
2019-02-11T02:06:47.360Z,100509.16
2019-02-11T02:09:14.700Z,100509.95
2019-02-11T02:11:41.904Z,100508.18
2019-02-11T02:14:09.159Z,100515.47
2019-02-11T02:16:36.362Z,100517.53
2019-02-11T02:19:03.679Z,100520.82
2019-02-11T02:21:30.901Z,100520.47
2019-02-11T02:23:58.117Z,100535.27
2019-02-11T02:26:25.328Z,100529.83
2019-02-11T02:28:52.600Z,100529.28
2019-02-11T02:31:19.803Z,100536.56
2019-02-11T02:33:47.014Z,100546.66
2019-02-11T02:36:14.260Z,100558.76
2019-02-11T02:38:41.504Z,100555.55
2019-02-11T02:41:08.725Z,100565.98
2019-02-11T02:43:35.954Z,100561.92
2019-02-11T02:46:03.187Z,100561.50
2019-02-11T02:48:30.402Z,100567.02
2019-02-11T02:50:57.692Z,100572.92
2019-02-11T02:53:24.908Z,100579.12
2019-02-11T02:55:52.105Z,100573.98
2019-02-11T02:58:19.348Z,100585.77
2019-02-11T03:00:46.555Z,100589.34
2019-02-11T03:03:13.800Z,100594.80
2019-02-11T03:05:41.037Z,100595.96
2019-02-11T03:08:08.243Z,100594.16
2019-02-11T03:10:35.482Z,100607.79
2019-02-11T03:13:02.696Z,100611.57
2019-02-11T03:15:29.914Z,100615.17
2019-02-11T03:17:57.181Z,100613.39
2019-02-11T03:20:24.387Z,100626.40
2019-02-11T03:22:51.615Z,100627.84
2019-02-11T03:25:18.971Z,100628.73
2019-02-11T03:27:46.177Z,100626.40
2019-02-11T03:30:13.396Z,100626.65
2019-02-11T03:32:40.883Z,100619.87
2019-02-11T03:35:08.218Z,100631.62
2019-02-11T03:37:35.484Z,100628.17
2019-02-11T03:40:02.850Z,100640.20
2019-02-11T03:42:30.066Z,100642.34
2019-02-11T03:44:57.365Z,100645.80
2019-02-11T03:47:24.568Z,100648.96
2019-02-11T03:49:51.790Z,100654.95
2019-02-11T03:52:19.029Z,100659.11
2019-02-11T03:54:46.350Z,100664.34
2019-02-11T03:57:13.600Z,100674.95
2019-02-11T03:59:40.856Z,100666.22
2019-02-11T04:02:08.087Z,100668.28
2019-02-11T04:04:35.347Z,100685.55
2019-02-11T04:07:02.579Z,100683.67
2019-02-11T04:09:29.801Z,100693.38
2019-02-11T04:11:57.074Z,100694.88
2019-02-11T04:14:25.242Z,100701.37
2019-02-11T04:16:52.648Z,100702.67
2019-02-11T04:19:19.854Z,100707.34
2019-02-11T04:21:56.248Z,100713.05
2019-02-11T04:24:23.497Z,100717.24
2019-02-11T04:26:50.727Z,100723.80
2019-02-11T04:29:18.063Z,100727.97
2019-02-11T04:31:45.275Z,100743.32
2019-02-11T04:34:12.496Z,100738.37
2019-02-11T04:36:39.751Z,100738.03
2019-02-11T04:39:07.032Z,100746.27
2019-02-11T04:41:34.266Z,100740.62
2019-02-11T04:44:01.547Z,100746.36
2019-02-11T04:46:28.764Z,100738.31
2019-02-11T04:48:56.021Z,100743.52
2019-02-11T04:51:23.227Z,100762.00
2019-02-11T04:53:50.458Z,100773.48
2019-02-11T04:56:17.703Z,100780.58
2019-02-11T04:58:44.917Z,100788.97
2019-02-11T05:01:12.177Z,100790.60
2019-02-11T05:03:39.414Z,100802.04
2019-02-11T05:06:06.636Z,100800.92
2019-02-11T05:08:33.908Z,100807.08
2019-02-11T05:11:01.121Z,100805.53
2019-02-11T05:13:28.337Z,100813.56
2019-02-11T05:15:55.606Z,100819.95
2019-02-11T05:18:22.819Z,100827.37
2019-02-11T05:20:50.062Z,100834.12
2019-02-11T05:23:17.317Z,100836.31
2019-02-11T05:25:44.517Z,100847.80
2019-02-11T05:28:11.745Z,100865.77
2019-02-11T05:30:38.990Z,100880.13
2019-02-11T05:33:06.221Z,100886.01
2019-02-11T05:35:33.440Z,100882.68
2019-02-11T05:38:00.676Z,100885.86
2019-02-11T05:40:27.946Z,100899.44
2019-02-11T05:42:55.143Z,100906.95
2019-02-11T05:45:22.418Z,100910.11
2019-02-11T05:47:49.654Z,100914.45
2019-02-11T05:50:16.872Z,100922.20
2019-02-11T05:52:44.163Z,100931.42
2019-02-11T05:55:11.411Z,100932.98
2019-02-11T05:57:38.641Z,100941.23
2019-02-11T06:00:08.027Z,100950.38
2019-02-11T06:02:35.235Z,100957.06
2019-02-11T06:05:02.483Z,100972.55
2019-02-11T06:07:29.687Z,100978.77
2019-02-11T06:09:56.930Z,100986.36
2019-02-11T06:12:24.149Z,100993.45
2019-02-11T06:14:51.376Z,101006.05
2019-02-11T06:17:18.628Z,101012.41
2019-02-11T06:19:45.840Z,101019.73
2019-02-11T06:22:13.042Z,101027.83
2019-02-11T06:24:40.286Z,101031.67
2019-02-11T06:27:07.498Z,101041.72
2019-02-11T06:29:34.756Z,101038.02
2019-02-11T06:32:01.969Z,101042.92
2019-02-11T06:34:29.175Z,101055.98
2019-02-11T06:36:56.445Z,101055.50
2019-02-11T06:39:23.698Z,101062.20
2019-02-11T06:41:50.988Z,101065.13
2019-02-11T06:44:18.241Z,101078.77
2019-02-11T06:46:45.565Z,101081.89
2019-02-11T06:49:12.749Z,101095.02
2019-02-11T06:51:39.982Z,101102.02
2019-02-11T06:54:07.242Z,101105.47
2019-02-11T06:56:34.438Z,101115.91
2019-02-11T06:59:01.645Z,101117.22
2019-02-11T07:01:28.935Z,101121.87
2019-02-11T07:03:56.179Z,101130.80
2019-02-11T07:06:23.405Z,101136.50
2019-02-11T07:08:50.616Z,101146.47
2019-02-11T07:11:17.956Z,101150.23
2019-02-11T07:13:45.176Z,101146.80
2019-02-11T07:16:12.428Z,101163.05
2019-02-11T07:18:39.633Z,101166.55
2019-02-11T07:21:06.888Z,101178.16
2019-02-11T07:23:34.153Z,101183.27
2019-02-11T07:26:01.401Z,101189.78
2019-02-11T07:28:28.669Z,101192.64
2019-02-11T07:30:55.981Z,101200.55
2019-02-11T07:33:23.201Z,101214.16
2019-02-11T07:35:50.443Z,101222.27
2019-02-11T07:38:17.705Z,101233.30
2019-02-11T07:40:44.949Z,101238.98
2019-02-11T07:43:31.859Z,101245.92
2019-02-11T07:46:03.425Z,101248.59
2019-02-11T07:48:30.625Z,101245.48
2019-02-11T07:50:57.918Z,101261.94
2019-02-11T07:53:25.116Z,101268.19
2019-02-11T07:55:52.326Z,101270.45
2019-02-11T07:58:19.627Z,101278.36
2019-02-11T08:00:46.841Z,101307.73
2019-02-11T08:03:14.062Z,101288.45
2019-02-11T08:05:41.331Z,101303.16
2019-02-11T08:08:08.549Z,101310.00
2019-02-11T08:10:35.778Z,101314.44
2019-02-11T08:13:03.021Z,101319.84
2019-02-11T08:15:38.068Z,101323.80
2019-02-11T08:17:59.365Z,101327.58
2019-02-11T08:20:26.658Z,101329.13
2019-02-11T08:22:53.888Z,101329.13
2019-02-11T08:25:21.106Z,101336.03
2019-02-11T08:27:48.380Z,101341.64
2019-02-11T08:30:15.598Z,101346.11
2019-02-11T08:32:42.809Z,101350.44
2019-02-11T08:35:10.058Z,101362.65
2019-02-11T08:37:37.275Z,101365.63
2019-02-11T08:40:04.694Z,101372.92
2019-02-11T08:42:31.949Z,101382.86
2019-02-11T08:44:59.190Z,101391.25
2019-02-11T08:47:26.430Z,101400.48
2019-02-11T08:49:53.773Z,101407.06
2019-02-11T08:52:20.977Z,101401.23
2019-02-11T08:54:48.237Z,101415.12
2019-02-11T08:57:15.460Z,101414.33
2019-02-11T08:59:43.033Z,101428.70
2019-02-11T09:02:10.385Z,101432.49
2019-02-11T09:04:37.610Z,101446.28
2019-02-11T09:07:04.952Z,101447.63
2019-02-11T09:09:32.225Z,101454.85
2019-02-11T09:11:59.459Z,101456.64
2019-02-11T09:14:26.673Z,101471.01
2019-02-11T09:16:53.926Z,101472.75
2019-02-11T09:19:21.165Z,101482.69
2019-02-11T09:21:48.379Z,101488.70
2019-02-11T09:24:15.642Z,101492.11
2019-02-11T09:26:42.877Z,101497.86
2019-02-11T09:29:10.132Z,101507.11
2019-02-11T09:31:37.359Z,101506.91
2019-02-11T09:34:04.591Z,101513.89
2019-02-11T09:36:31.977Z,101530.13
2019-02-11T09:38:59.185Z,101534.66
2019-02-11T09:41:26.449Z,101532.53
2019-02-11T09:43:53.775Z,101541.92
2019-02-11T09:46:21.212Z,101548.52
2019-02-11T09:48:48.485Z,101556.44
2019-02-11T09:51:15.767Z,101565.47
2019-02-11T09:53:42.988Z,101574.51
2019-02-11T09:56:10.374Z,101590.66
2019-02-11T09:58:38.176Z,101591.04
2019-02-11T10:01:05.506Z,101588.49
2019-02-11T10:03:32.752Z,101598.09
2019-02-11T10:05:59.970Z,101613.48
2019-02-11T10:08:27.199Z,101613.10
2019-02-11T10:10:54.482Z,101625.38
2019-02-11T10:13:21.717Z,101626.99
2019-02-11T10:15:48.931Z,101628.71
2019-02-11T10:18:16.204Z,101641.22
2019-02-11T10:20:43.417Z,101647.38
2019-02-11T10:23:10.629Z,101657.75
2019-02-11T10:25:37.870Z,101659.95
2019-02-11T10:28:08.161Z,101663.11
2019-02-11T10:30:35.392Z,101669.36
2019-02-11T10:33:02.655Z,101673.01
2019-02-11T10:35:29.878Z,101682.27
2019-02-11T10:37:57.104Z,101695.91
2019-02-11T10:40:24.443Z,101699.83
2019-02-11T10:42:51.747Z,101713.27
2019-02-11T10:45:19.112Z,101721.49
2019-02-11T10:47:46.386Z,101717.16
2019-02-11T10:50:14.736Z,101727.36
2019-02-11T10:52:41.940Z,101740.06
2019-02-11T10:55:10.993Z,101745.20
2019-02-11T10:57:38.273Z,101750.09
2019-02-11T11:00:07.755Z,101764.84
2019-02-11T11:02:34.971Z,101764.84
2019-02-11T11:05:02.249Z,101773.00
2019-02-11T11:07:29.537Z,101774.48
2019-02-11T11:09:56.790Z,101784.12
2019-02-11T11:12:24.326Z,101793.69
2019-02-11T11:14:51.627Z,101799.35
2019-02-11T11:17:21.046Z,101806.06
2019-02-11T11:19:48.271Z,101812.40
2019-02-11T11:22:15.546Z,101830.50
2019-02-11T11:24:42.764Z,101831.99
2019-02-11T11:27:10.016Z,101836.52
2019-02-11T11:29:37.284Z,101840.20
2019-02-11T11:32:04.617Z,101853.92
2019-02-11T11:34:31.828Z,101866.61
2019-02-11T11:36:59.099Z,101864.19
2019-02-11T11:39:26.491Z,101868.81
2019-02-11T11:41:53.736Z,101872.33
2019-02-11T11:44:20.977Z,101876.45
2019-02-11T11:46:48.313Z,101892.23
2019-02-11T11:49:15.540Z,101884.44
2019-02-11T11:51:42.965Z,101888.77
2019-02-11T11:54:10.226Z,101895.80
2019-02-11T11:56:37.507Z,101900.32
2019-02-11T11:59:04.744Z,101909.59
2019-02-11T12:01:32.090Z,101904.83
2019-02-11T12:03:59.364Z,101908.88
2019-02-11T12:06:26.745Z,101916.08
2019-02-11T12:08:54.009Z,101925.67
2019-02-11T12:11:21.346Z,101924.95
2019-02-11T12:13:48.752Z,101941.07
2019-02-11T12:16:16.011Z,101932.01
2019-02-11T12:18:43.310Z,101941.52
2019-02-11T12:21:10.554Z,101951.72
2019-02-11T12:23:37.763Z,101962.23
2019-02-11T12:26:05.132Z,101973.17
2019-02-11T12:28:32.438Z,101984.41
2019-02-11T12:30:59.760Z,101985.94
2019-02-11T12:33:26.973Z,101986.13
2019-02-11T12:35:54.239Z,101991.88
2019-02-11T12:38:21.526Z,101991.66
2019-02-11T12:40:48.780Z,101996.90
2019-02-11T12:43:16.039Z,102000.23
2019-02-11T12:45:43.418Z,102002.52
2019-02-11T12:48:10.804Z,102002.52
2019-02-11T12:50:38.130Z,102011.86
2019-02-11T12:53:05.417Z,102023.23
2019-02-11T12:55:32.702Z,102024.57
2019-02-11T12:57:59.918Z,102023.96
2019-02-11T13:00:27.203Z,102019.45
2019-02-11T13:02:54.435Z,102013.84
2019-02-11T13:05:26.713Z,102036.33
2019-02-11T13:07:50.960Z,102042.43
2019-02-11T13:10:19.574Z,102041.88
2019-02-11T13:12:46.966Z,102046.48
2019-02-11T13:15:33.942Z,102054.22
2019-02-11T13:17:43.884Z,102061.97
2019-02-11T13:20:12.310Z,102061.37
2019-02-11T13:22:39.710Z,102075.22
2019-02-11T13:25:09.427Z,102084.39
2019-02-11T13:27:36.820Z,102084.50
2019-02-11T13:30:05.380Z,102082.93
2019-02-11T13:32:32.657Z,102096.62
2019-02-11T13:34:59.899Z,102099.09
2019-02-11T13:37:27.150Z,102098.91
2019-02-11T13:39:54.414Z,102108.37
2019-02-11T13:42:22.669Z,102103.33
2019-02-11T13:44:50.021Z,102106.44
2019-02-11T13:47:17.361Z,102105.45
2019-02-11T13:49:46.506Z,102116.31
2019-02-11T13:52:13.800Z,102121.25
2019-02-11T13:54:41.354Z,102126.29
2019-02-11T13:57:08.579Z,102130.82
2019-02-11T13:59:35.878Z,102129.92
2019-02-11T14:02:03.231Z,102141.61
2019-02-11T14:04:30.459Z,102133.06
2019-02-11T14:06:57.828Z,102156.62
2019-02-11T14:09:25.053Z,102157.33
2019-02-11T14:11:52.318Z,102163.68
2019-02-11T14:14:27.110Z,102174.66
2019-02-11T14:16:55.080Z,102177.99
2019-02-11T14:19:22.330Z,102183.81
2019-02-11T14:21:49.591Z,102183.12
2019-02-11T14:24:16.843Z,102197.59
2019-02-11T14:26:44.077Z,102203.05
2019-02-11T14:29:11.391Z,102214.23
2019-02-11T14:31:38.622Z,102222.98
2019-02-11T14:34:10.048Z,102219.56
2019-02-11T14:36:35.049Z,102228.21
2019-02-11T14:39:04.203Z,102234.28
2019-02-11T14:41:31.491Z,102244.25
2019-02-11T14:43:58.704Z,102258.86
2019-02-11T14:46:25.971Z,102269.62
2019-02-11T14:48:53.346Z,102292.20
2019-02-11T14:51:20.613Z,102273.11
2019-02-11T14:53:47.905Z,102276.42
2019-02-11T14:56:15.218Z,102281.41
2019-02-11T14:58:42.453Z,102283.82
2019-02-11T15:01:09.665Z,102298.71
2019-02-11T15:03:36.935Z,102295.28
2019-02-11T15:06:04.173Z,102314.64
2019-02-11T15:08:31.407Z,102323.23
2019-02-11T15:10:58.715Z,102336.53
2019-02-11T15:13:25.930Z,102342.02
2019-02-11T15:15:53.156Z,102349.41
2019-02-11T15:18:20.413Z,102353.62
2019-02-11T15:20:47.617Z,102364.89
2019-02-11T15:23:14.826Z,102368.28
2019-02-11T15:25:42.071Z,102376.27
2019-02-11T15:28:09.304Z,102382.66
2019-02-11T15:30:36.680Z,102383.84
2019-02-11T15:33:03.893Z,102380.75
2019-02-11T15:35:31.144Z,102387.91
2019-02-11T15:37:58.428Z,102387.98
2019-02-11T15:40:25.673Z,102398.52
2019-02-11T15:42:52.900Z,102405.45
2019-02-11T15:45:20.170Z,102414.56
2019-02-11T15:47:47.477Z,102422.47
2019-02-11T15:50:15.312Z,102421.37
2019-02-11T15:52:42.630Z,102425.30
2019-02-11T15:55:11.933Z,102428.47
2019-02-11T15:57:39.174Z,102440.44
2019-02-11T16:00:08.116Z,102451.58
2019-02-11T16:02:35.322Z,102452.06
2019-02-11T16:05:02.991Z,102458.67
2019-02-11T16:07:30.289Z,102463.87
2019-02-11T16:09:57.534Z,102472.05
2019-02-11T16:12:24.758Z,102479.50
2019-02-11T16:14:52.008Z,102486.49
2019-02-11T16:17:21.875Z,102480.80
2019-02-11T16:19:49.102Z,102484.78
2019-02-11T16:22:16.370Z,102483.02
2019-02-11T16:24:43.581Z,102488.48
2019-02-11T16:27:10.802Z,102483.19
2019-02-11T16:29:38.063Z,102492.06
2019-02-11T16:32:05.281Z,102490.13
2019-02-11T16:34:32.520Z,102500.77
2019-02-11T16:36:59.784Z,102501.27
2019-02-11T16:39:27.050Z,102501.63
2019-02-11T16:41:54.297Z,102511.45
2019-02-11T16:44:21.554Z,102518.84
2019-02-11T16:46:48.796Z,102520.56
2019-02-11T16:49:16.105Z,102520.61
2019-02-11T16:51:43.432Z,102527.88
2019-02-11T16:54:10.666Z,102539.02
2019-02-11T16:56:37.914Z,102535.97
2019-02-11T16:59:05.161Z,102533.20
2019-02-11T17:01:32.395Z,102536.86
2019-02-11T17:03:59.667Z,102550.48
2019-02-11T17:06:26.948Z,102544.34
2019-02-11T17:08:54.169Z,102554.17
2019-02-11T17:11:21.401Z,102551.38
2019-02-11T17:13:48.675Z,102543.27
2019-02-11T17:16:15.881Z,102535.78
2019-02-11T17:18:43.100Z,102543.94
2019-02-11T17:21:10.370Z,102540.47
2019-02-11T17:23:37.611Z,102547.59
2019-02-11T17:26:04.830Z,102554.76
2019-02-11T17:28:32.082Z,102552.91
2019-02-11T17:30:59.476Z,102560.53
2019-02-11T17:33:26.706Z,102570.41
2019-02-11T17:35:53.998Z,102571.66
2019-02-11T17:38:21.201Z,102582.61
2019-02-11T17:40:48.460Z,102585.05
2019-02-11T17:43:15.670Z,102597.27
2019-02-11T17:45:43.019Z,102601.59
2019-02-11T17:48:10.279Z,102621.80
2019-02-11T17:50:37.576Z,102621.48
2019-02-11T17:53:05.502Z,102620.48
2019-02-11T17:55:32.782Z,102612.29
2019-02-11T17:58:00.004Z,102616.72
2019-02-11T18:00:31.271Z,102607.38
2019-02-11T18:02:58.550Z,102621.67
2019-02-11T18:05:25.769Z,102627.98
2019-02-11T18:07:52.977Z,102635.75
2019-02-11T18:10:20.241Z,102645.81
2019-02-11T18:12:47.465Z,102651.69
2019-02-11T18:15:14.737Z,102638.69
2019-02-11T18:17:41.970Z,102629.74
2019-02-11T18:20:09.324Z,102622.50
2019-02-11T18:22:36.544Z,102617.28
2019-02-11T18:25:04.117Z,102624.34
2019-02-11T18:27:31.373Z,102624.05
2019-02-11T18:29:58.593Z,102638.62
2019-02-11T18:32:25.793Z,102648.32
2019-02-11T18:34:53.045Z,102653.68
2019-02-11T18:37:20.279Z,102661.95
2019-02-11T18:39:47.511Z,102675.01
2019-02-11T18:42:14.772Z,102691.94
2019-02-11T18:44:42.014Z,102703.67
2019-02-11T18:47:09.258Z,102701.49
2019-02-11T18:49:36.549Z,102697.22
2019-02-11T18:52:03.939Z,102687.36
2019-02-11T18:54:31.189Z,102693.58
2019-02-11T18:56:58.404Z,102684.55
2019-02-11T18:59:25.658Z,102679.38
2019-02-11T19:01:52.882Z,102689.56
2019-02-11T19:04:20.122Z,102712.19
2019-02-11T19:06:47.413Z,102707.39
2019-02-11T19:09:16.080Z,102720.50
2019-02-11T19:11:43.297Z,102712.66
2019-02-11T19:14:10.588Z,102719.78
2019-02-11T19:16:37.842Z,102721.87
2019-02-11T19:19:05.053Z,102721.17
2019-02-11T19:21:32.339Z,102726.53
2019-02-11T19:23:59.590Z,102723.78
2019-02-11T19:26:26.793Z,102723.69
2019-02-11T19:28:54.010Z,102729.58
2019-02-11T19:31:21.279Z,102725.75
2019-02-11T19:33:48.493Z,102734.66
2019-02-11T19:36:15.707Z,102729.55
2019-02-11T19:38:42.965Z,102726.48
2019-02-11T19:41:10.337Z,102733.77
2019-02-11T19:43:37.899Z,102729.60
2019-02-11T19:46:05.557Z,102744.52
2019-02-11T19:48:33.242Z,102754.70
2019-02-11T19:51:00.856Z,102755.74
2019-02-11T19:53:28.607Z,102755.81
2019-02-11T19:55:56.342Z,102771.10
2019-02-11T19:58:23.919Z,102777.53
2019-02-11T20:00:51.452Z,102780.16
2019-02-11T20:03:19.018Z,102782.86
2019-02-11T20:05:46.559Z,102776.17
2019-02-11T20:08:14.102Z,102777.62
2019-02-11T20:10:41.825Z,102788.45
2019-02-11T20:13:09.370Z,102785.86
2019-02-11T20:15:37.019Z,102779.34
2019-02-11T20:18:04.748Z,102779.87
2019-02-11T20:20:32.385Z,102788.21
2019-02-11T20:22:59.921Z,102793.96
2019-02-11T20:25:27.600Z,102804.70
2019-02-11T20:27:55.254Z,102808.11
2019-02-11T20:30:24.148Z,102810.34
2019-02-11T20:32:51.823Z,102809.95
2019-02-11T20:35:19.576Z,102821.45
2019-02-11T20:37:47.113Z,102810.73
2019-02-11T20:40:16.579Z,102813.05
2019-02-11T20:42:44.131Z,102816.45
2019-02-11T20:45:14.730Z,102816.16
2019-02-11T20:47:42.326Z,102835.76
2019-02-11T20:50:12.117Z,102831.25
2019-02-11T20:52:39.552Z,102844.03
2019-02-11T20:55:08.740Z,102848.86
2019-02-11T20:57:36.302Z,102837.37
2019-02-11T21:00:04.789Z,102842.98
2019-02-11T21:02:32.366Z,102838.40
2019-02-11T21:04:59.904Z,102843.36
2019-02-11T21:07:27.442Z,102838.03
2019-02-11T21:09:55.072Z,102843.38
2019-02-11T21:12:22.724Z,102846.25
2019-02-11T21:14:50.255Z,102845.33
2019-02-11T21:17:17.978Z,102851.61
2019-02-11T21:19:45.523Z,102852.66
2019-02-11T21:22:13.147Z,102844.15
2019-02-11T21:24:40.707Z,102851.08
2019-02-11T21:27:08.256Z,102854.86
2019-02-11T21:29:35.825Z,102862.17
2019-02-11T21:32:06.449Z,102853.55
2019-02-11T21:34:33.987Z,102847.30
2019-02-11T21:37:01.603Z,102855.94
2019-02-11T21:39:29.137Z,102860.89
2019-02-11T21:41:56.682Z,102866.77
2019-02-11T21:44:24.313Z,102880.48
2019-02-11T21:46:51.554Z,102891.45
2019-02-11T21:49:19.292Z,102906.07
2019-02-11T21:51:46.553Z,102904.00
2019-02-11T21:54:13.762Z,102917.34
2019-02-11T21:56:41.037Z,102899.31
2019-02-11T21:59:08.284Z,102892.86
2019-02-11T22:01:35.493Z,102890.82
2019-02-11T22:04:02.716Z,102888.61
2019-02-11T22:06:30.000Z,102901.78
2019-02-11T22:08:57.210Z,102901.02
2019-02-11T22:11:24.426Z,102899.71
2019-02-11T22:13:51.677Z,102903.73
2019-02-11T22:16:18.919Z,102899.56
2019-02-11T22:18:46.150Z,102903.23
2019-02-11T22:21:13.420Z,102906.82
2019-02-11T22:23:40.627Z,102909.44
2019-02-11T22:26:07.836Z,102899.92
2019-02-11T22:28:35.085Z,102903.45
2019-02-11T22:31:02.307Z,102910.27
2019-02-11T22:33:29.529Z,102915.89
2019-02-11T22:35:56.813Z,102917.05
2019-02-11T22:38:24.024Z,102927.50
2019-02-11T22:40:51.235Z,102923.83
2019-02-11T22:43:18.534Z,102927.85
2019-02-11T22:45:45.752Z,102931.92
2019-02-11T22:48:12.979Z,102937.38
2019-02-11T22:50:43.215Z,102923.78
2019-02-11T22:53:09.386Z,102938.37
2019-02-11T22:55:36.658Z,102941.39
2019-02-11T22:58:03.914Z,102926.38
2019-02-11T23:00:48.603Z,102923.53
2019-02-11T23:03:16.314Z,102925.44
2019-02-11T23:05:43.638Z,102925.59
2019-02-11T23:08:11.147Z,102935.25
2019-02-11T23:10:38.393Z,102941.77
2019-02-11T23:13:05.592Z,102939.06
2019-02-11T23:15:32.810Z,102937.62
2019-02-11T23:18:00.089Z,102942.33
2019-02-11T23:20:27.655Z,102947.17
2019-02-11T23:22:54.862Z,102946.27
2019-02-11T23:25:22.173Z,102944.68
2019-02-11T23:27:49.392Z,102948.59
2019-02-11T23:30:16.594Z,102943.52
2019-02-11T23:32:43.853Z,102938.69
2019-02-11T23:35:11.070Z,102945.95
2019-02-11T23:37:38.280Z,102945.86
2019-02-11T23:40:05.676Z,102951.48
2019-02-11T23:42:32.928Z,102943.52
2019-02-11T23:45:00.280Z,102958.13
2019-02-11T23:47:27.544Z,102954.75
2019-02-11T23:49:54.845Z,102959.58
2019-02-11T23:52:22.078Z,102954.59
2019-02-11T23:54:49.360Z,102956.70
2019-02-11T23:57:16.567Z,102960.22
2019-02-11T23:59:43.780Z,102965.53
